createdAt,value
2019-01-25T00:01:23.784Z,85.00
2019-01-25T00:03:54.760Z,85.21
2019-01-25T00:06:26.698Z,84.90
2019-01-25T00:08:58.054Z,85.05
2019-01-25T00:11:29.440Z,84.85
2019-01-25T00:14:02.291Z,84.79
2019-01-25T00:16:33.642Z,84.87
2019-01-25T00:19:04.860Z,84.79
2019-01-25T00:21:36.618Z,85.01
2019-01-25T00:24:10.637Z,85.10
2019-01-25T00:26:42.016Z,84.87
2019-01-25T00:29:13.028Z,85.11
2019-01-25T00:31:44.290Z,85.10
2019-01-25T00:34:15.296Z,84.83
2019-01-25T00:36:46.707Z,84.71
2019-01-25T00:39:19.027Z,84.62
2019-01-25T00:41:50.484Z,84.84
2019-01-25T00:44:22.600Z,84.74
2019-01-25T00:46:53.905Z,84.51
2019-01-25T00:49:25.232Z,84.44
2019-01-25T00:51:56.398Z,84.57
2019-01-25T00:54:27.850Z,84.68
2019-01-25T00:56:59.058Z,84.68
2019-01-25T00:59:30.755Z,84.72
2019-01-25T01:02:03.219Z,84.74
2019-01-25T01:04:35.966Z,84.63
2019-01-25T01:07:07.316Z,84.57
2019-01-25T01:09:38.716Z,84.59
2019-01-25T01:12:09.833Z,84.54
2019-01-25T01:14:42.047Z,84.60
2019-01-25T01:17:13.861Z,84.71
2019-01-25T01:19:45.959Z,84.69
2019-01-25T01:22:17.081Z,85.03
2019-01-25T01:24:48.288Z,85.10
2019-01-25T01:27:19.714Z,85.30
2019-01-25T01:29:51.033Z,85.21
2019-01-25T01:32:22.165Z,85.22
2019-01-25T01:34:54.129Z,85.05
2019-01-25T01:37:26.449Z,84.92
2019-01-25T01:39:57.967Z,85.18
2019-01-25T01:42:30.533Z,85.22
2019-01-25T01:45:02.505Z,85.31
2019-01-25T01:47:33.754Z,85.38
2019-01-25T01:50:07.587Z,85.31
2019-01-25T01:52:38.912Z,85.44
2019-01-25T01:55:11.483Z,85.23
2019-01-25T01:57:46.255Z,85.06
2019-01-25T02:00:28.883Z,84.97
2019-01-25T02:03:00.354Z,84.96
2019-01-25T02:05:32.800Z,84.89
2019-01-25T02:08:04.118Z,84.90
2019-01-25T02:10:35.832Z,84.83
2019-01-25T02:13:07.200Z,84.64
2019-01-25T02:15:38.572Z,84.70
2019-01-25T02:18:10.783Z,84.79
2019-01-25T02:20:41.975Z,84.57
2019-01-25T02:23:14.042Z,84.42
2019-01-25T02:25:45.653Z,84.39
2019-01-25T02:28:16.790Z,84.44
2019-01-25T02:30:48.040Z,84.52
2019-01-25T02:33:19.282Z,84.53
2019-01-25T02:35:50.722Z,84.41
2019-01-25T02:38:21.931Z,84.38
2019-01-25T02:40:53.046Z,84.08
2019-01-25T02:43:24.389Z,83.90
2019-01-25T02:45:55.752Z,83.83
2019-01-25T02:48:27.006Z,83.94
2019-01-25T02:50:58.615Z,83.75
2019-01-25T02:53:29.830Z,83.52
2019-01-25T02:56:01.313Z,83.33
2019-01-25T02:58:33.111Z,83.43
2019-01-25T03:01:04.754Z,83.22
2019-01-25T03:03:36.796Z,83.11
2019-01-25T03:06:08.087Z,83.03
2019-01-25T03:08:39.450Z,83.01
2019-01-25T03:11:10.854Z,82.94
2019-01-25T03:13:43.770Z,82.78
2019-01-25T03:16:15.039Z,82.66
2019-01-25T03:18:46.284Z,82.70
2019-01-25T03:21:17.508Z,82.72
2019-01-25T03:23:48.617Z,82.58
2019-01-25T03:26:20.288Z,82.36
2019-01-25T03:28:51.550Z,82.42
2019-01-25T03:31:22.852Z,82.40
2019-01-25T03:33:54.231Z,82.54
2019-01-25T03:36:26.492Z,82.55
2019-01-25T03:38:57.679Z,82.37
2019-01-25T03:41:29.271Z,82.26
2019-01-25T03:44:00.443Z,82.22
2019-01-25T03:46:33.236Z,82.14
2019-01-25T03:49:04.412Z,82.15
2019-01-25T03:51:36.374Z,82.07
2019-01-25T03:54:08.720Z,82.18
2019-01-25T03:56:41.319Z,82.14
2019-01-25T03:59:12.602Z,82.21
2019-01-25T04:01:45.185Z,82.07
2019-01-25T04:04:16.479Z,82.07
2019-01-25T04:06:47.852Z,82.09
2019-01-25T04:09:19.342Z,82.17
2019-01-25T04:11:50.661Z,82.14
2019-01-25T04:14:21.993Z,82.24
2019-01-25T04:16:53.399Z,82.17
2019-01-25T04:19:25.298Z,82.25
2019-01-25T04:21:56.474Z,82.24
2019-01-25T04:24:28.087Z,82.25
2019-01-25T04:26:59.394Z,82.12
2019-01-25T04:29:30.701Z,82.58
2019-01-25T04:32:02.094Z,82.52
2019-01-25T04:34:33.491Z,82.50
2019-01-25T04:37:06.339Z,82.51
2019-01-25T04:39:37.687Z,82.76
2019-01-25T04:42:08.889Z,82.90
2019-01-25T04:44:41.150Z,82.56
2019-01-25T04:47:13.245Z,82.56
2019-01-25T04:49:46.298Z,82.58
2019-01-25T04:52:17.428Z,82.42
2019-01-25T04:54:48.724Z,82.29
2019-01-25T04:57:19.839Z,82.32
2019-01-25T04:59:51.129Z,82.05
2019-01-25T05:02:22.265Z,81.96
2019-01-25T05:04:53.514Z,81.87
2019-01-25T05:07:24.638Z,82.02
2019-01-25T05:09:55.790Z,82.03
2019-01-25T05:12:29.014Z,82.36
2019-01-25T05:15:00.189Z,82.89
2019-01-25T05:17:31.630Z,82.76
2019-01-25T05:20:03.076Z,83.09
2019-01-25T05:22:34.201Z,83.02
2019-01-25T05:25:07.632Z,82.86
2019-01-25T05:27:38.955Z,82.60
2019-01-25T05:30:11.783Z,82.37
2019-01-25T05:32:42.995Z,82.12
2019-01-25T05:35:15.807Z,82.28
2019-01-25T05:37:47.165Z,82.30
2019-01-25T05:40:24.503Z,82.27
2019-01-25T05:42:55.680Z,82.16
2019-01-25T05:45:26.699Z,82.46
2019-01-25T05:47:58.199Z,81.83
2019-01-25T05:50:29.662Z,82.70
2019-01-25T05:53:00.919Z,82.45
2019-01-25T05:55:32.212Z,82.46
2019-01-25T05:58:04.508Z,82.78
2019-01-25T06:00:40.028Z,82.59
2019-01-25T06:03:13.280Z,83.17
2019-01-25T06:05:45.189Z,83.56
2019-01-25T06:08:33.964Z,84.25
2019-01-25T06:11:10.650Z,84.02
2019-01-25T06:13:46.221Z,84.26
2019-01-25T06:16:18.169Z,84.50
2019-01-25T06:18:49.334Z,84.23
2019-01-25T06:21:20.612Z,84.13
2019-01-25T06:23:55.152Z,84.15
2019-01-25T06:26:26.694Z,84.14
2019-01-25T06:28:57.954Z,83.30
2019-01-25T06:31:29.730Z,83.01
2019-01-25T06:34:03.608Z,82.84
2019-01-25T06:36:34.901Z,83.36
2019-01-25T06:39:09.231Z,83.32
2019-01-25T06:41:44.184Z,83.28
2019-01-25T06:44:13.675Z,84.10
2019-01-25T06:46:44.830Z,84.03
2019-01-25T06:49:17.080Z,83.90
2019-01-25T06:51:48.568Z,84.28
2019-01-25T06:54:19.775Z,83.96
2019-01-25T06:56:51.143Z,84.29
2019-01-25T06:59:25.376Z,83.76
2019-01-25T07:02:04.608Z,83.98
2019-01-25T07:04:35.806Z,83.80
2019-01-25T07:07:15.036Z,83.34
2019-01-25T07:09:46.662Z,84.12
2019-01-25T07:12:18.517Z,84.15
2019-01-25T07:14:49.816Z,83.71
2019-01-25T07:17:22.655Z,83.99
2019-01-25T07:19:54.160Z,83.34
2019-01-25T07:22:25.685Z,83.96
2019-01-25T07:24:58.718Z,83.76
2019-01-25T07:27:31.684Z,83.43
2019-01-25T07:30:02.867Z,83.07
2019-01-25T07:32:35.330Z,82.14
2019-01-25T07:35:07.641Z,82.69
2019-01-25T07:37:39.085Z,82.80
2019-01-25T07:40:10.331Z,82.77
2019-01-25T07:42:42.313Z,82.32
2019-01-25T07:45:14.103Z,82.44
2019-01-25T07:47:45.427Z,82.23
2019-01-25T07:50:16.797Z,82.28
2019-01-25T07:52:48.427Z,82.22
2019-01-25T08:10:27.522Z,81.78
2019-01-25T08:12:58.931Z,81.62
2019-01-25T08:15:30.650Z,81.54
2019-01-25T08:18:01.794Z,81.13
2019-01-25T08:20:33.136Z,81.59
2019-01-25T08:23:04.775Z,81.19
2019-01-25T08:25:37.479Z,81.08
2019-01-25T08:28:09.266Z,82.02
2019-01-25T08:30:40.725Z,81.84
2019-01-25T08:33:12.281Z,81.39
2019-01-25T08:35:43.618Z,81.57
2019-01-25T08:38:15.366Z,81.22
2019-01-25T08:40:46.473Z,80.95
2019-01-25T08:43:17.817Z,80.45
2019-01-25T08:45:50.381Z,80.87
2019-01-25T08:48:22.215Z,80.43
2019-01-25T08:50:53.616Z,80.69
2019-01-25T08:53:24.997Z,80.36
2019-01-25T08:55:57.587Z,81.22
2019-01-25T08:58:28.897Z,81.16
2019-01-25T09:01:00.359Z,81.64
2019-01-25T09:03:32.087Z,82.08
2019-01-25T09:06:03.615Z,81.47
2019-01-25T09:08:35.063Z,81.57
2019-01-25T09:11:06.469Z,81.78
2019-01-25T09:13:37.819Z,81.62
2019-01-25T09:16:11.521Z,81.86
2019-01-25T09:18:42.781Z,81.86
2019-01-25T09:21:14.137Z,81.49
2019-01-25T09:23:46.833Z,81.67
2019-01-25T09:26:18.172Z,81.83
2019-01-25T09:28:50.056Z,81.43
2019-01-25T09:31:21.329Z,81.78
2019-01-25T09:33:52.748Z,82.07
2019-01-25T09:36:26.116Z,81.88
2019-01-25T09:38:57.628Z,81.89
2019-01-25T09:41:29.659Z,82.17
2019-01-25T09:44:01.285Z,81.75
2019-01-25T09:46:32.360Z,81.21
2019-01-25T09:49:03.949Z,80.74
2019-01-25T09:51:36.714Z,80.98
2019-01-25T09:54:07.980Z,80.97
2019-01-25T09:56:39.266Z,81.31
2019-01-25T09:59:10.541Z,81.25
2019-01-25T10:01:41.832Z,80.99
2019-01-25T10:04:13.413Z,80.81
2019-01-25T10:06:44.842Z,80.90
2019-01-25T10:09:16.006Z,80.70
2019-01-25T10:11:47.097Z,80.52
2019-01-25T10:14:19.785Z,79.95
2019-01-25T10:16:50.905Z,79.85
2019-01-25T10:19:22.169Z,79.29
2019-01-25T10:21:53.426Z,79.84
2019-01-25T10:24:24.891Z,79.09
2019-01-25T10:26:57.531Z,79.67
2019-01-25T10:29:30.963Z,79.44
2019-01-25T10:32:02.395Z,79.16
2019-01-25T10:34:33.506Z,78.81
2019-01-25T10:37:05.308Z,79.74
2019-01-25T10:39:37.453Z,79.26
2019-01-25T10:42:08.639Z,79.43
2019-01-25T10:44:41.705Z,79.51
2019-01-25T10:47:12.808Z,80.16
2019-01-25T10:49:44.141Z,79.19
2019-01-25T10:52:15.542Z,78.59
2019-01-25T10:54:46.780Z,77.55
2019-01-25T10:57:18.664Z,76.48
2019-01-25T10:59:49.995Z,75.27
2019-01-25T11:02:21.147Z,75.25
2019-01-25T11:04:52.335Z,75.49
2019-01-25T11:07:23.507Z,75.91
2019-01-25T11:09:54.650Z,75.43
2019-01-25T11:12:25.911Z,76.37
2019-01-25T11:14:57.717Z,75.63
2019-01-25T11:17:36.251Z,75.71
2019-01-25T11:20:02.215Z,74.68
2019-01-25T11:22:33.827Z,74.57
2019-01-25T11:25:06.128Z,74.81
2019-01-25T11:27:38.673Z,74.77
2019-01-25T11:33:27.104Z,75.16
2019-01-25T11:36:00.161Z,74.94
2019-01-25T11:38:31.798Z,74.44
2019-01-25T11:41:03.182Z,74.54
2019-01-25T11:43:34.546Z,74.81
2019-01-25T11:46:05.861Z,74.19
2019-01-25T11:48:37.951Z,74.00
2019-01-25T11:51:08.994Z,73.63
2019-01-25T11:53:42.617Z,73.07
2019-01-25T11:56:13.992Z,73.53
2019-01-25T11:58:45.238Z,73.51
2019-01-25T12:01:16.587Z,73.20
2019-01-25T12:03:47.730Z,73.50
2019-01-25T12:06:18.993Z,73.18
2019-01-25T12:08:51.592Z,72.86
2019-01-25T12:11:22.951Z,73.10
2019-01-25T12:13:53.986Z,73.14
2019-01-25T12:16:25.071Z,72.87
2019-01-25T12:18:56.551Z,72.25
2019-01-25T12:21:27.632Z,72.25
2019-01-25T12:23:58.625Z,71.48
2019-01-25T12:26:30.093Z,72.12
2019-01-25T12:29:02.689Z,72.25
2019-01-25T12:31:34.191Z,72.69
2019-01-25T12:34:05.996Z,72.41
2019-01-25T12:36:37.827Z,71.77
2019-01-25T12:39:10.122Z,72.21
2019-01-25T12:41:41.833Z,72.36
2019-01-25T12:44:13.089Z,72.88
2019-01-25T12:46:44.201Z,73.11
2019-01-25T12:49:17.400Z,73.14
2019-01-25T12:51:58.612Z,72.93
2019-01-25T12:54:29.987Z,72.80
2019-01-25T12:57:01.706Z,73.26
2019-01-25T12:59:32.760Z,73.79
2019-01-25T13:02:03.999Z,73.03
2019-01-25T13:04:36.787Z,72.55
2019-01-25T13:07:10.379Z,72.46
2019-01-25T13:09:41.669Z,72.56
2019-01-25T13:12:12.983Z,72.59
2019-01-25T13:14:44.358Z,72.84
2019-01-25T13:17:15.505Z,73.10
2019-01-25T13:19:47.578Z,72.95
2019-01-25T13:22:18.811Z,72.50
2019-01-25T13:24:50.012Z,72.21
2019-01-25T13:27:21.289Z,72.17
2019-01-25T13:29:52.397Z,72.02
2019-01-25T13:32:23.639Z,72.14
2019-01-25T13:34:55.068Z,72.20
2019-01-25T13:37:31.314Z,71.85
2019-01-25T13:39:59.389Z,72.19
2019-01-25T13:42:30.445Z,72.16
2019-01-25T13:45:02.666Z,72.13
2019-01-25T13:47:33.857Z,72.24
2019-01-25T13:50:06.520Z,72.47
2019-01-25T13:52:37.872Z,72.48
2019-01-25T13:55:11.552Z,72.55
2019-01-25T13:57:44.107Z,72.99
2019-01-25T14:00:24.636Z,73.12
2019-01-25T14:02:56.004Z,73.28
2019-01-25T14:05:29.116Z,73.38
2019-01-25T14:08:01.713Z,73.61
2019-01-25T14:10:34.935Z,73.33
2019-01-25T14:13:06.868Z,72.60
2019-01-25T14:15:38.144Z,72.75
2019-01-25T14:18:09.151Z,71.59
2019-01-25T14:20:40.297Z,70.22
2019-01-25T14:23:11.437Z,69.92
2019-01-25T14:25:42.629Z,70.45
2019-01-25T14:28:15.339Z,70.66
2019-01-25T14:30:46.503Z,70.92
2019-01-25T14:33:17.955Z,71.01
2019-01-25T14:35:49.330Z,71.10
2019-01-25T14:38:20.803Z,70.91
2019-01-25T14:40:53.138Z,71.05
2019-01-25T14:43:24.777Z,71.50
2019-01-25T14:45:56.747Z,71.69
2019-01-25T14:48:28.189Z,72.09
2019-01-25T14:51:00.019Z,72.69
2019-01-25T14:53:31.697Z,72.88
2019-01-25T14:56:03.657Z,73.48
2019-01-25T14:58:34.817Z,73.81
2019-01-25T15:01:06.012Z,74.15
2019-01-25T15:03:37.444Z,74.31
2019-01-25T15:06:09.010Z,74.68
2019-01-25T15:08:40.370Z,75.03
2019-01-25T15:11:11.567Z,75.23
2019-01-25T15:13:43.045Z,75.57
2019-01-25T15:16:14.003Z,75.62
2019-01-25T15:18:46.741Z,75.57
2019-01-25T15:21:18.831Z,75.74
2019-01-25T15:23:50.250Z,76.08
2019-01-25T15:26:21.286Z,76.43
2019-01-25T15:28:52.449Z,76.82
2019-01-25T15:31:24.435Z,77.13
2019-01-25T15:33:55.633Z,77.47
2019-01-25T15:36:27.160Z,77.88
2019-01-25T15:38:59.084Z,77.98
2019-01-25T15:41:30.322Z,78.41
2019-01-25T15:44:01.770Z,78.65
2019-01-25T15:46:35.845Z,78.83
2019-01-25T15:49:07.807Z,79.13
2019-01-25T15:51:38.917Z,79.46
2019-01-25T15:54:10.085Z,79.54
2019-01-25T15:56:41.492Z,79.59
2019-01-25T15:59:12.580Z,79.80
2019-01-25T16:01:43.890Z,80.17
2019-01-25T16:04:16.899Z,80.20
2019-01-25T16:06:49.724Z,80.59
2019-01-25T16:09:23.673Z,80.64
2019-01-25T16:11:56.696Z,80.56
2019-01-25T16:14:30.545Z,80.71
2019-01-25T16:17:02.193Z,80.89
2019-01-25T16:19:33.228Z,80.68
2019-01-25T16:22:04.674Z,80.79
2019-01-25T16:24:35.817Z,80.65
2019-01-25T16:27:07.187Z,81.10
2019-01-25T16:29:38.294Z,81.42
2019-01-25T16:32:09.644Z,81.58
2019-01-25T16:34:41.807Z,81.63
2019-01-25T16:37:14.124Z,81.49
2019-01-25T16:39:45.378Z,81.64
2019-01-25T16:42:19.250Z,81.61
2019-01-25T16:44:50.403Z,81.85
2019-01-25T16:47:21.639Z,81.99
2019-01-25T16:49:52.793Z,81.88
2019-01-25T16:52:23.854Z,81.96
2019-01-25T16:54:55.042Z,81.71
2019-01-25T16:57:26.208Z,81.39
2019-01-25T16:59:59.631Z,81.59
2019-01-25T17:02:30.624Z,81.42
2019-01-25T17:05:03.595Z,81.37
2019-01-25T17:07:34.929Z,81.42
2019-01-25T17:10:08.669Z,81.34
2019-01-25T17:12:39.731Z,81.33
2019-01-25T17:15:11.160Z,81.13
2019-01-25T17:17:42.168Z,80.79
2019-01-25T17:20:19.120Z,80.88
2019-01-25T17:22:48.497Z,80.83
2019-01-25T17:25:19.821Z,80.69
2019-01-25T17:27:52.779Z,80.63
2019-01-25T17:30:26.046Z,80.73
2019-01-25T17:32:58.536Z,80.85
2019-01-25T17:35:31.508Z,80.87
2019-01-25T17:38:03.280Z,80.78
2019-01-25T17:40:46.684Z,80.38
2019-01-25T17:43:18.379Z,80.50
2019-01-25T17:45:50.183Z,80.54
2019-01-25T17:48:21.373Z,80.45
2019-01-25T17:50:52.607Z,80.59
2019-01-25T17:53:23.861Z,80.72
2019-01-25T17:55:54.954Z,80.61
2019-01-25T17:58:26.954Z,80.32
2019-01-25T18:00:58.445Z,80.44
2019-01-25T18:03:31.119Z,80.51
2019-01-25T18:06:03.642Z,80.27
2019-01-25T18:08:35.050Z,80.46
2019-01-25T18:11:06.496Z,80.79
2019-01-25T18:13:37.988Z,80.51
2019-01-25T18:16:09.310Z,80.39
2019-01-25T18:18:42.286Z,80.09
2019-01-25T18:21:13.285Z,80.07
2019-01-25T18:23:44.569Z,79.81
2019-01-25T18:26:25.840Z,79.51
2019-01-25T18:29:19.918Z,79.54
2019-01-25T18:31:50.956Z,79.75
2019-01-25T18:34:22.193Z,79.76
2019-01-25T18:36:53.355Z,79.91
2019-01-25T18:39:25.764Z,79.85
2019-01-25T18:41:56.938Z,80.04
2019-01-25T18:44:27.954Z,79.71
2019-01-25T18:47:00.005Z,79.95
2019-01-25T18:49:31.076Z,79.92
2019-01-25T18:52:02.369Z,79.92
2019-01-25T18:54:33.334Z,80.17
2019-01-25T18:57:04.539Z,80.27
2019-01-25T18:59:35.988Z,80.35
2019-01-25T19:02:07.373Z,80.03
2019-01-25T19:04:39.070Z,80.07
2019-01-25T19:07:10.334Z,80.30
2019-01-25T19:09:41.425Z,80.20
2019-01-25T19:12:12.746Z,80.29
2019-01-25T19:14:43.986Z,80.34
2019-01-25T19:17:15.992Z,80.41
2019-01-25T19:19:47.087Z,80.47
2019-01-25T19:22:19.635Z,80.41
2019-01-25T19:24:51.144Z,80.46
2019-01-25T19:27:22.450Z,80.52
2019-01-25T19:29:53.655Z,80.63
2019-01-25T19:32:24.990Z,80.60
2019-01-25T19:34:55.978Z,80.75
2019-01-25T19:37:30.049Z,80.88
2019-01-25T19:40:01.540Z,80.61
2019-01-25T19:42:33.268Z,80.86
2019-01-25T19:45:11.703Z,81.16
2019-01-25T19:47:38.851Z,81.31
2019-01-25T19:50:12.647Z,81.45
2019-01-25T19:52:44.249Z,81.42
2019-01-25T19:55:18.306Z,81.51
2019-01-25T19:57:49.312Z,81.71
2019-01-25T20:00:23.426Z,81.60
2019-01-25T20:02:54.788Z,81.64
2019-01-25T20:05:27.206Z,81.28
2019-01-25T20:07:58.619Z,81.11
2019-01-25T20:10:29.896Z,81.08
2019-01-25T20:13:01.597Z,81.03
2019-01-25T20:15:33.106Z,80.78
2019-01-25T20:18:04.836Z,80.91
2019-01-25T20:20:36.445Z,80.63
2019-01-25T20:23:08.143Z,80.56
2019-01-25T20:25:40.703Z,80.83
2019-01-25T20:28:12.187Z,80.90
2019-01-25T20:30:49.560Z,80.41
2019-01-25T20:33:17.497Z,80.24
2019-01-25T20:35:48.855Z,80.26
2019-01-25T20:38:21.397Z,79.86
2019-01-25T20:40:52.684Z,80.22
2019-01-25T20:43:24.193Z,79.73
2019-01-25T20:45:55.363Z,79.49
2019-01-25T20:48:27.963Z,79.68
2019-01-25T20:50:59.264Z,78.72
2019-01-25T20:53:31.857Z,79.17
2019-01-25T20:56:02.974Z,77.83
2019-01-25T20:58:34.282Z,77.52
2019-01-25T21:01:05.596Z,77.81
2019-01-25T21:03:37.019Z,77.83
2019-01-25T21:06:09.705Z,77.84
2019-01-25T21:08:40.865Z,78.21
2019-01-25T21:11:12.024Z,78.30
2019-01-25T21:13:43.566Z,78.11
2019-01-25T21:16:14.916Z,78.16
2019-01-25T21:18:46.437Z,78.03
2019-01-25T21:21:18.162Z,78.42
2019-01-25T21:23:49.240Z,78.26
2019-01-25T21:26:21.435Z,78.30
2019-01-25T21:28:53.796Z,78.43
2019-01-25T21:31:25.388Z,78.63
2019-01-25T21:33:56.364Z,78.85
2019-01-25T21:36:27.501Z,78.98
2019-01-25T21:38:58.849Z,78.96
2019-01-25T21:41:30.051Z,79.05
2019-01-25T21:44:01.166Z,79.26
2019-01-25T21:46:39.833Z,79.32
2019-01-25T21:49:05.422Z,79.47
2019-01-25T21:51:36.730Z,79.55
2019-01-25T21:54:08.991Z,79.66
2019-01-25T21:56:40.100Z,79.79
2019-01-25T21:59:11.600Z,79.98
2019-01-25T22:01:42.750Z,79.96
2019-01-25T22:04:14.831Z,80.17
2019-01-25T22:06:47.143Z,80.39
2019-01-25T22:09:18.430Z,80.68
2019-01-25T22:11:49.653Z,80.78
2019-01-25T22:14:21.223Z,81.11
2019-01-25T22:16:53.633Z,81.23
2019-01-25T22:19:24.883Z,81.42
2019-01-25T22:21:56.193Z,81.74
2019-01-25T22:24:29.104Z,81.80
2019-01-25T22:27:00.922Z,82.04
2019-01-25T22:29:32.663Z,82.32
2019-01-25T22:32:03.826Z,82.38
2019-01-25T22:34:35.137Z,82.26
2019-01-25T22:37:06.541Z,82.35
2019-01-25T22:39:38.941Z,82.47
2019-01-25T22:42:10.381Z,82.70
2019-01-25T22:44:42.941Z,82.73
2019-01-25T22:47:20.237Z,82.80
2019-01-25T22:49:47.048Z,82.93
2019-01-25T22:52:18.266Z,83.02
2019-01-25T22:54:49.488Z,83.28
2019-01-25T22:57:20.613Z,83.45
2019-01-25T22:59:51.798Z,83.46
2019-01-25T23:02:23.160Z,83.58
2019-01-25T23:05:05.956Z,83.68
2019-01-25T23:07:37.165Z,83.83
2019-01-25T23:10:16.893Z,83.99
2019-01-25T23:12:48.508Z,83.94
2019-01-25T23:15:21.656Z,84.05
2019-01-25T23:17:52.591Z,84.20
2019-01-25T23:20:23.592Z,84.26
2019-01-25T23:22:54.671Z,84.24
2019-01-25T23:25:26.155Z,84.33
2019-01-25T23:27:57.270Z,84.31
2019-01-25T23:30:28.331Z,84.42
2019-01-25T23:32:59.455Z,84.39
2019-01-25T23:35:30.626Z,84.44
2019-01-25T23:38:02.185Z,84.49
2019-01-25T23:40:34.792Z,84.68
2019-01-25T23:43:07.070Z,84.75
2019-01-25T23:45:38.650Z,84.82
2019-01-25T23:48:09.769Z,84.92
2019-01-25T23:50:42.687Z,84.82
2019-01-25T23:53:13.734Z,84.92
2019-01-25T23:55:44.752Z,84.86
2019-01-25T23:58:16.269Z,84.74
